sensor_id;sensor_type;location;lat;lon;timestamp;P1;durP1;ratioP1;P2;durP2;ratioP2
44508;SDS011;30214;52.246;14.408;2023-07-09T00:00:49;6.75;;;3.25;;
44508;SDS011;30214;52.246;14.408;2023-07-09T00:03:18;5.50;;;3.58;;
44508;SDS011;30214;52.246;14.408;2023-07-09T00:05:49;5.10;;;3.00;;
44508;SDS011;30214;52.246;14.408;2023-07-09T00:08:24;6.47;;;3.00;;
44508;SDS011;30214;52.246;14.408;2023-07-09T00:10:54;6.22;;;3.30;;
44508;SDS011;30214;52.246;14.408;2023-07-09T00:13:22;8.20;;;3.20;;
44508;SDS011;30214;52.246;14.408;2023-07-09T00:15:51;5.63;;;3.20;;
44508;SDS011;30214;52.246;14.408;2023-07-09T00:18:22;4.32;;;2.95;;
44508;SDS011;30214;52.246;14.408;2023-07-09T00:20:49;7.53;;;4.10;;
44508;SDS011;30214;52.246;14.408;2023-07-09T00:23:18;6.47;;;3.00;;
44508;SDS011;30214;52.246;14.408;2023-07-09T00:25:48;4.28;;;3.00;;
44508;SDS011;30214;52.246;14.408;2023-07-09T00:28:17;7.85;;;3.10;;
44508;SDS011;30214;52.246;14.408;2023-07-09T00:30:49;8.73;;;3.10;;
44508;SDS011;30214;52.246;14.408;2023-07-09T00:33:18;4.90;;;3.13;;
44508;SDS011;30214;52.246;14.408;2023-07-09T00:35:46;7.25;;;2.90;;
44508;SDS011;30214;52.246;14.408;2023-07-09T00:38:18;4.00;;;3.00;;
44508;SDS011;30214;52.246;14.408;2023-07-09T00:41:01;5.05;;;3.50;;
44508;SDS011;30214;52.246;14.408;2023-07-09T00:43:32;4.70;;;3.00;;
44508;SDS011;30214;52.246;14.408;2023-07-09T00:46:14;4.50;;;3.10;;
44508;SDS011;30214;52.246;14.408;2023-07-09T00:49:07;5.45;;;3.50;;
44508;SDS011;30214;52.246;14.408;2023-07-09T00:51:41;6.78;;;3.35;;
44508;SDS011;30214;52.246;14.408;2023-07-09T00:54:18;8.02;;;3.42;;
44508;SDS011;30214;52.246;14.408;2023-07-09T00:56:59;8.90;;;3.30;;
44508;SDS011;30214;52.246;14.408;2023-07-09T00:59:33;6.28;;;2.97;;
44508;SDS011;30214;52.246;14.408;2023-07-09T01:02:04;5.82;;;3.25;;
44508;SDS011;30214;52.246;14.408;2023-07-09T01:04:34;5.13;;;3.13;;
44508;SDS011;30214;52.246;14.408;2023-07-09T01:07:05;6.13;;;3.80;;
44508;SDS011;30214;52.246;14.408;2023-07-09T01:09:34;4.88;;;3.30;;
44508;SDS011;30214;52.246;14.408;2023-07-09T01:12:08;5.55;;;3.50;;
44508;SDS011;30214;52.246;14.408;2023-07-09T01:14:39;5.80;;;3.10;;
44508;SDS011;30214;52.246;14.408;2023-07-09T01:17:07;5.90;;;3.63;;
44508;SDS011;30214;52.246;14.408;2023-07-09T01:19:38;8.23;;;3.45;;
44508;SDS011;30214;52.246;14.408;2023-07-09T01:22:13;6.25;;;3.28;;
44508;SDS011;30214;52.246;14.408;2023-07-09T01:24:53;5.70;;;3.40;;
44508;SDS011;30214;52.246;14.408;2023-07-09T01:27:29;6.00;;;3.17;;
44508;SDS011;30214;52.246;14.408;2023-07-09T01:29:59;5.25;;;3.38;;
44508;SDS011;30214;52.246;14.408;2023-07-09T01:32:29;8.90;;;3.47;;
44508;SDS011;30214;52.246;14.408;2023-07-09T01:34:56;5.18;;;3.38;;
44508;SDS011;30214;52.246;14.408;2023-07-09T01:37:30;8.05;;;3.53;;
44508;SDS011;30214;52.246;14.408;2023-07-09T01:40:01;4.93;;;3.47;;
44508;SDS011;30214;52.246;14.408;2023-07-09T01:42:31;5.97;;;3.35;;
44508;SDS011;30214;52.246;14.408;2023-07-09T01:44:58;4.40;;;3.38;;
44508;SDS011;30214;52.246;14.408;2023-07-09T01:47:26;6.13;;;3.53;;
44508;SDS011;30214;52.246;14.408;2023-07-09T01:49:53;5.78;;;3.83;;
44508;SDS011;30214;52.246;14.408;2023-07-09T01:52:22;8.48;;;3.35;;
44508;SDS011;30214;52.246;14.408;2023-07-09T01:54:54;4.60;;;3.53;;
44508;SDS011;30214;52.246;14.408;2023-07-09T01:57:23;7.53;;;4.03;;
44508;SDS011;30214;52.246;14.408;2023-07-09T01:59:52;6.43;;;3.72;;
44508;SDS011;30214;52.246;14.408;2023-07-09T02:02:20;5.53;;;3.40;;
44508;SDS011;30214;52.246;14.408;2023-07-09T02:04:48;6.72;;;3.83;;
44508;SDS011;30214;52.246;14.408;2023-07-09T02:07:16;5.30;;;3.47;;
44508;SDS011;30214;52.246;14.408;2023-07-09T02:09:44;5.95;;;3.97;;
44508;SDS011;30214;52.246;14.408;2023-07-09T02:12:13;6.32;;;3.72;;
44508;SDS011;30214;52.246;14.408;2023-07-09T02:14:41;6.93;;;3.70;;
44508;SDS011;30214;52.246;14.408;2023-07-09T02:17:10;6.32;;;3.72;;
44508;SDS011;30214;52.246;14.408;2023-07-09T02:19:38;5.47;;;3.67;;
44508;SDS011;30214;52.246;14.408;2023-07-09T02:22:06;7.65;;;3.58;;
44508;SDS011;30214;52.246;14.408;2023-07-09T02:24:34;5.30;;;3.65;;
44508;SDS011;30214;52.246;14.408;2023-07-09T02:27:02;8.73;;;3.78;;
44508;SDS011;30214;52.246;14.408;2023-07-09T02:29:33;7.22;;;3.67;;
44508;SDS011;30214;52.246;14.408;2023-07-09T02:32:00;6.70;;;3.30;;
44508;SDS011;30214;52.246;14.408;2023-07-09T02:34:29;6.35;;;4.10;;
44508;SDS011;30214;52.246;14.408;2023-07-09T02:36:58;5.32;;;3.60;;
44508;SDS011;30214;52.246;14.408;2023-07-09T02:39:25;12.07;;;4.13;;
44508;SDS011;30214;52.246;14.408;2023-07-09T02:41:53;7.38;;;4.25;;
44508;SDS011;30214;52.246;14.408;2023-07-09T02:44:19;7.85;;;3.60;;
44508;SDS011;30214;52.246;14.408;2023-07-09T02:46:48;8.63;;;3.95;;
44508;SDS011;30214;52.246;14.408;2023-07-09T02:49:15;5.90;;;3.80;;
44508;SDS011;30214;52.246;14.408;2023-07-09T02:51:42;6.63;;;3.92;;
44508;SDS011;30214;52.246;14.408;2023-07-09T02:54:09;7.85;;;4.10;;
44508;SDS011;30214;52.246;14.408;2023-07-09T02:56:36;7.05;;;3.75;;
44508;SDS011;30214;52.246;14.408;2023-07-09T02:59:03;5.53;;;4.10;;
44508;SDS011;30214;52.246;14.408;2023-07-09T03:01:31;9.05;;;3.88;;
44508;SDS011;30214;52.246;14.408;2023-07-09T03:04:01;7.90;;;4.03;;
44508;SDS011;30214;52.246;14.408;2023-07-09T03:06:28;7.82;;;3.58;;
44508;SDS011;30214;52.246;14.408;2023-07-09T03:08:58;7.10;;;4.43;;
44508;SDS011;30214;52.246;14.408;2023-07-09T03:11:25;5.55;;;4.00;;
44508;SDS011;30214;52.246;14.408;2023-07-09T03:13:52;5.35;;;4.05;;
44508;SDS011;30214;52.246;14.408;2023-07-09T03:16:19;12.13;;;4.20;;
44508;SDS011;30214;52.246;14.408;2023-07-09T03:18:47;7.10;;;4.40;;
44508;SDS011;30214;52.246;14.408;2023-07-09T03:21:15;8.23;;;4.10;;
44508;SDS011;30214;52.246;14.408;2023-07-09T03:23:42;5.97;;;3.60;;
44508;SDS011;30214;52.246;14.408;2023-07-09T03:26:09;6.28;;;3.90;;
44508;SDS011;30214;52.246;14.408;2023-07-09T03:28:36;10.05;;;4.57;;
44508;SDS011;30214;52.246;14.408;2023-07-09T03:31:04;7.38;;;4.70;;
44508;SDS011;30214;52.246;14.408;2023-07-09T03:33:31;5.28;;;4.47;;
44508;SDS011;30214;52.246;14.408;2023-07-09T03:35:58;6.28;;;4.40;;
44508;SDS011;30214;52.246;14.408;2023-07-09T03:38:26;7.10;;;4.80;;
44508;SDS011;30214;52.246;14.408;2023-07-09T03:40:53;6.70;;;5.00;;
44508;SDS011;30214;52.246;14.408;2023-07-09T03:43:21;7.03;;;4.45;;
44508;SDS011;30214;52.246;14.408;2023-07-09T03:45:48;6.07;;;4.55;;
44508;SDS011;30214;52.246;14.408;2023-07-09T03:48:16;6.45;;;4.53;;
44508;SDS011;30214;52.246;14.408;2023-07-09T03:50:45;8.85;;;4.82;;
44508;SDS011;30214;52.246;14.408;2023-07-09T03:53:13;6.72;;;4.13;;
44508;SDS011;30214;52.246;14.408;2023-07-09T03:55:44;8.88;;;4.32;;
44508;SDS011;30214;52.246;14.408;2023-07-09T03:58:12;7.95;;;4.63;;
44508;SDS011;30214;52.246;14.408;2023-07-09T04:00:39;5.72;;;4.05;;
44508;SDS011;30214;52.246;14.408;2023-07-09T04:03:06;7.10;;;4.78;;
44508;SDS011;30214;52.246;14.408;2023-07-09T04:05:35;6.88;;;4.55;;
44508;SDS011;30214;52.246;14.408;2023-07-09T04:08:02;5.80;;;3.97;;
44508;SDS011;30214;52.246;14.408;2023-07-09T04:10:29;5.80;;;4.35;;
44508;SDS011;30214;52.246;14.408;2023-07-09T04:12:58;8.13;;;4.72;;
44508;SDS011;30214;52.246;14.408;2023-07-09T04:15:25;6.53;;;4.45;;
44508;SDS011;30214;52.246;14.408;2023-07-09T04:17:52;7.10;;;4.55;;
44508;SDS011;30214;52.246;14.408;2023-07-09T04:20:19;8.48;;;4.20;;
44508;SDS011;30214;52.246;14.408;2023-07-09T04:22:47;8.85;;;4.40;;
44508;SDS011;30214;52.246;14.408;2023-07-09T04:25:14;7.15;;;4.78;;
44508;SDS011;30214;52.246;14.408;2023-07-09T04:27:40;6.15;;;4.22;;
44508;SDS011;30214;52.246;14.408;2023-07-09T04:30:10;6.28;;;3.95;;
44508;SDS011;30214;52.246;14.408;2023-07-09T04:32:39;5.32;;;4.13;;
44508;SDS011;30214;52.246;14.408;2023-07-09T04:35:08;9.85;;;5.63;;
44508;SDS011;30214;52.246;14.408;2023-07-09T04:37:36;21.08;;;6.15;;
44508;SDS011;30214;52.246;14.408;2023-07-09T04:40:04;13.68;;;5.18;;
44508;SDS011;30214;52.246;14.408;2023-07-09T04:42:35;8.32;;;4.32;;
44508;SDS011;30214;52.246;14.408;2023-07-09T04:45:05;9.18;;;4.47;;
44508;SDS011;30214;52.246;14.408;2023-07-09T04:47:34;7.43;;;4.10;;
44508;SDS011;30214;52.246;14.408;2023-07-09T04:50:01;9.05;;;4.47;;
44508;SDS011;30214;52.246;14.408;2023-07-09T04:52:29;8.75;;;4.88;;
44508;SDS011;30214;52.246;14.408;2023-07-09T04:54:57;10.32;;;4.10;;
44508;SDS011;30214;52.246;14.408;2023-07-09T04:57:24;8.73;;;4.50;;
44508;SDS011;30214;52.246;14.408;2023-07-09T04:59:53;9.13;;;4.45;;
44508;SDS011;30214;52.246;14.408;2023-07-09T05:02:21;8.48;;;4.13;;
44508;SDS011;30214;52.246;14.408;2023-07-09T05:04:50;6.75;;;4.03;;
44508;SDS011;30214;52.246;14.408;2023-07-09T05:07:17;8.07;;;4.35;;
44508;SDS011;30214;52.246;14.408;2023-07-09T05:09:44;5.97;;;4.50;;
44508;SDS011;30214;52.246;14.408;2023-07-09T05:12:11;7.80;;;4.55;;
44508;SDS011;30214;52.246;14.408;2023-07-09T05:14:38;5.70;;;3.92;;
44508;SDS011;30214;52.246;14.408;2023-07-09T05:17:06;6.07;;;3.75;;
44508;SDS011;30214;52.246;14.408;2023-07-09T05:19:33;6.03;;;3.78;;
44508;SDS011;30214;52.246;14.408;2023-07-09T05:22:03;5.32;;;3.45;;
44508;SDS011;30214;52.246;14.408;2023-07-09T05:24:30;6.43;;;3.95;;
44508;SDS011;30214;52.246;14.408;2023-07-09T05:26:57;5.18;;;3.72;;
44508;SDS011;30214;52.246;14.408;2023-07-09T05:29:25;8.85;;;4.05;;
44508;SDS011;30214;52.246;14.408;2023-07-09T05:31:52;7.28;;;4.20;;
44508;SDS011;30214;52.246;14.408;2023-07-09T05:34:19;5.68;;;4.10;;
44508;SDS011;30214;52.246;14.408;2023-07-09T05:36:47;7.22;;;4.15;;
44508;SDS011;30214;52.246;14.408;2023-07-09T05:39:15;6.18;;;3.67;;
44508;SDS011;30214;52.246;14.408;2023-07-09T05:41:43;6.15;;;3.85;;
44508;SDS011;30214;52.246;14.408;2023-07-09T05:44:10;5.10;;;3.80;;
44508;SDS011;30214;52.246;14.408;2023-07-09T05:46:37;6.90;;;3.90;;
44508;SDS011;30214;52.246;14.408;2023-07-09T05:49:05;7.38;;;3.92;;
44508;SDS011;30214;52.246;14.408;2023-07-09T05:51:33;10.32;;;3.92;;
44508;SDS011;30214;52.246;14.408;2023-07-09T05:54:01;8.38;;;3.85;;
44508;SDS011;30214;52.246;14.408;2023-07-09T05:56:30;8.70;;;4.05;;
44508;SDS011;30214;52.246;14.408;2023-07-09T05:58:59;10.02;;;3.75;;
44508;SDS011;30214;52.246;14.408;2023-07-09T06:01:27;5.93;;;3.65;;
44508;SDS011;30214;52.246;14.408;2023-07-09T06:03:54;6.10;;;4.00;;
44508;SDS011;30214;52.246;14.408;2023-07-09T06:06:22;6.93;;;3.63;;
44508;SDS011;30214;52.246;14.408;2023-07-09T06:08:49;5.45;;;3.75;;
44508;SDS011;30214;52.246;14.408;2023-07-09T06:11:16;6.78;;;3.65;;
44508;SDS011;30214;52.246;14.408;2023-07-09T06:13:45;6.20;;;3.92;;
44508;SDS011;30214;52.246;14.408;2023-07-09T06:16:13;9.27;;;3.83;;
44508;SDS011;30214;52.246;14.408;2023-07-09T06:18:40;6.35;;;3.53;;
44508;SDS011;30214;52.246;14.408;2023-07-09T06:21:07;6.45;;;4.22;;
44508;SDS011;30214;52.246;14.408;2023-07-09T06:23:36;6.82;;;3.60;;
44508;SDS011;30214;52.246;14.408;2023-07-09T06:26:03;6.90;;;3.92;;
44508;SDS011;30214;52.246;14.408;2023-07-09T06:28:30;6.05;;;3.72;;
44508;SDS011;30214;52.246;14.408;2023-07-09T06:30:59;8.63;;;3.80;;
44508;SDS011;30214;52.246;14.408;2023-07-09T06:33:26;8.80;;;4.20;;
44508;SDS011;30214;52.246;14.408;2023-07-09T06:35:55;6.78;;;4.10;;
44508;SDS011;30214;52.246;14.408;2023-07-09T06:38:23;8.45;;;4.22;;
44508;SDS011;30214;52.246;14.408;2023-07-09T06:40:50;9.15;;;3.75;;
44508;SDS011;30214;52.246;14.408;2023-07-09T06:43:17;8.18;;;3.85;;
44508;SDS011;30214;52.246;14.408;2023-07-09T06:45:48;7.07;;;3.80;;
44508;SDS011;30214;52.246;14.408;2023-07-09T06:48:17;6.25;;;3.90;;
44508;SDS011;30214;52.246;14.408;2023-07-09T06:50:44;6.72;;;3.65;;
44508;SDS011;30214;52.246;14.408;2023-07-09T06:53:11;5.95;;;3.80;;
44508;SDS011;30214;52.246;14.408;2023-07-09T06:55:38;6.03;;;3.75;;
44508;SDS011;30214;52.246;14.408;2023-07-09T06:58:05;5.20;;;3.58;;
44508;SDS011;30214;52.246;14.408;2023-07-09T07:00:33;7.22;;;3.85;;
44508;SDS011;30214;52.246;14.408;2023-07-09T07:03:00;8.52;;;3.83;;
44508;SDS011;30214;52.246;14.408;2023-07-09T07:05:28;5.18;;;3.80;;
44508;SDS011;30214;52.246;14.408;2023-07-09T07:07:56;5.13;;;3.53;;
44508;SDS011;30214;52.246;14.408;2023-07-09T07:10:23;9.27;;;4.30;;
44508;SDS011;30214;52.246;14.408;2023-07-09T07:12:51;5.55;;;3.63;;
44508;SDS011;30214;52.246;14.408;2023-07-09T07:15:19;9.25;;;4.00;;
44508;SDS011;30214;52.246;14.408;2023-07-09T07:17:47;5.68;;;4.00;;
44508;SDS011;30214;52.246;14.408;2023-07-09T07:20:15;8.02;;;4.03;;
44508;SDS011;30214;52.246;14.408;2023-07-09T07:22:46;8.27;;;3.78;;
44508;SDS011;30214;52.246;14.408;2023-07-09T07:25:13;8.77;;;3.95;;
44508;SDS011;30214;52.246;14.408;2023-07-09T07:27:40;9.30;;;3.60;;
44508;SDS011;30214;52.246;14.408;2023-07-09T07:30:07;8.05;;;3.88;;
44508;SDS011;30214;52.246;14.408;2023-07-09T07:32:36;5.47;;;3.38;;
44508;SDS011;30214;52.246;14.408;2023-07-09T07:35:04;8.40;;;4.10;;
44508;SDS011;30214;52.246;14.408;2023-07-09T07:37:32;7.28;;;3.47;;
44508;SDS011;30214;52.246;14.408;2023-07-09T07:40:00;9.00;;;3.63;;
44508;SDS011;30214;52.246;14.408;2023-07-09T07:42:29;5.57;;;3.72;;
44508;SDS011;30214;52.246;14.408;2023-07-09T07:44:59;7.53;;;3.42;;
44508;SDS011;30214;52.246;14.408;2023-07-09T07:47:26;5.80;;;3.85;;
44508;SDS011;30214;52.246;14.408;2023-07-09T07:49:53;7.57;;;3.80;;
44508;SDS011;30214;52.246;14.408;2023-07-09T07:52:20;7.30;;;3.78;;
44508;SDS011;30214;52.246;14.408;2023-07-09T07:54:48;4.40;;;3.40;;
44508;SDS011;30214;52.246;14.408;2023-07-09T07:57:17;14.32;;;4.88;;
44508;SDS011;30214;52.246;14.408;2023-07-09T07:59:44;6.88;;;3.40;;
44508;SDS011;30214;52.246;14.408;2023-07-09T08:02:12;6.78;;;3.88;;
44508;SDS011;30214;52.246;14.408;2023-07-09T08:04:41;6.80;;;3.80;;
44508;SDS011;30214;52.246;14.408;2023-07-09T08:07:08;5.70;;;3.60;;
44508;SDS011;30214;52.246;14.408;2023-07-09T08:09:35;7.28;;;3.30;;
44508;SDS011;30214;52.246;14.408;2023-07-09T08:12:04;5.70;;;4.07;;
44508;SDS011;30214;52.246;14.408;2023-07-09T08:14:38;5.40;;;3.97;;
44508;SDS011;30214;52.246;14.408;2023-07-09T08:17:07;5.68;;;3.67;;
44508;SDS011;30214;52.246;14.408;2023-07-09T08:19:43;8.30;;;3.35;;
44508;SDS011;30214;52.246;14.408;2023-07-09T08:22:11;7.82;;;3.60;;
44508;SDS011;30214;52.246;14.408;2023-07-09T08:24:38;5.53;;;3.10;;
44508;SDS011;30214;52.246;14.408;2023-07-09T08:27:05;6.05;;;3.40;;
44508;SDS011;30214;52.246;14.408;2023-07-09T08:29:33;5.90;;;3.30;;
44508;SDS011;30214;52.246;14.408;2023-07-09T08:32:03;6.68;;;3.20;;
44508;SDS011;30214;52.246;14.408;2023-07-09T08:34:37;6.60;;;2.88;;
44508;SDS011;30214;52.246;14.408;2023-07-09T08:37:06;5.93;;;2.80;;
44508;SDS011;30214;52.246;14.408;2023-07-09T08:39:34;6.57;;;3.30;;
44508;SDS011;30214;52.246;14.408;2023-07-09T08:42:02;4.50;;;3.25;;
44508;SDS011;30214;52.246;14.408;2023-07-09T08:44:37;7.30;;;3.10;;
44508;SDS011;30214;52.246;14.408;2023-07-09T08:47:22;4.57;;;2.47;;
44508;SDS011;30214;52.246;14.408;2023-07-09T08:49:57;7.78;;;3.10;;
44508;SDS011;30214;52.246;14.408;2023-07-09T08:52:28;3.53;;;2.50;;
44508;SDS011;30214;52.246;14.408;2023-07-09T08:54:59;7.15;;;2.60;;
44508;SDS011;30214;52.246;14.408;2023-07-09T08:57:32;4.63;;;2.40;;
44508;SDS011;30214;52.246;14.408;2023-07-09T09:00:05;6.28;;;2.97;;
44508;SDS011;30214;52.246;14.408;2023-07-09T09:02:41;7.00;;;3.13;;
44508;SDS011;30214;52.246;14.408;2023-07-09T09:05:14;6.47;;;2.58;;
44508;SDS011;30214;52.246;14.408;2023-07-09T09:07:46;5.57;;;2.83;;
44508;SDS011;30214;52.246;14.408;2023-07-09T09:10:19;5.90;;;2.92;;
44508;SDS011;30214;52.246;14.408;2023-07-09T09:12:56;3.47;;;2.45;;
44508;SDS011;30214;52.246;14.408;2023-07-09T09:15:31;5.65;;;2.90;;
44508;SDS011;30214;52.246;14.408;2023-07-09T09:18:01;6.72;;;2.47;;
44508;SDS011;30214;52.246;14.408;2023-07-09T09:20:45;7.72;;;2.80;;
44508;SDS011;30214;52.246;14.408;2023-07-09T09:25:46;3.90;;;2.60;;
44508;SDS011;30214;52.246;14.408;2023-07-09T09:28:17;4.05;;;2.40;;
44508;SDS011;30214;52.246;14.408;2023-07-09T09:30:44;5.63;;;2.85;;
44508;SDS011;30214;52.246;14.408;2023-07-09T09:33:13;4.63;;;2.80;;
44508;SDS011;30214;52.246;14.408;2023-07-09T09:35:44;7.82;;;3.08;;
44508;SDS011;30214;52.246;14.408;2023-07-09T09:38:15;4.97;;;2.40;;
44508;SDS011;30214;52.246;14.408;2023-07-09T09:40:44;4.72;;;2.60;;
44508;SDS011;30214;52.246;14.408;2023-07-09T09:43:12;4.28;;;2.40;;
44508;SDS011;30214;52.246;14.408;2023-07-09T09:45:42;5.07;;;2.45;;
44508;SDS011;30214;52.246;14.408;2023-07-09T09:48:14;5.32;;;2.58;;
44508;SDS011;30214;52.246;14.408;2023-07-09T09:50:44;6.55;;;2.53;;
44508;SDS011;30214;52.246;14.408;2023-07-09T09:53:16;3.80;;;2.53;;
44508;SDS011;30214;52.246;14.408;2023-07-09T09:55:47;4.85;;;2.92;;
44508;SDS011;30214;52.246;14.408;2023-07-09T09:58:16;5.72;;;2.40;;
44508;SDS011;30214;52.246;14.408;2023-07-09T10:00:48;3.60;;;2.58;;
44508;SDS011;30214;52.246;14.408;2023-07-09T10:03:18;6.35;;;2.60;;
44508;SDS011;30214;52.246;14.408;2023-07-09T10:05:48;3.53;;;2.60;;
44508;SDS011;30214;52.246;14.408;2023-07-09T10:08:22;4.78;;;2.60;;
44508;SDS011;30214;52.246;14.408;2023-07-09T10:10:56;5.00;;;2.60;;
44508;SDS011;30214;52.246;14.408;2023-07-09T10:13:33;4.95;;;2.53;;
44508;SDS011;30214;52.246;14.408;2023-07-09T10:16:05;10.93;;;2.65;;
44508;SDS011;30214;52.246;14.408;2023-07-09T10:18:42;5.55;;;2.60;;
44508;SDS011;30214;52.246;14.408;2023-07-09T10:21:18;6.40;;;2.65;;
44508;SDS011;30214;52.246;14.408;2023-07-09T10:23:54;6.78;;;3.83;;
44508;SDS011;30214;52.246;14.408;2023-07-09T10:26:31;5.25;;;2.70;;
44508;SDS011;30214;52.246;14.408;2023-07-09T10:29:07;7.30;;;2.45;;
44508;SDS011;30214;52.246;14.408;2023-07-09T10:31:54;4.40;;;2.88;;
44508;SDS011;30214;52.246;14.408;2023-07-09T10:34:32;4.57;;;2.70;;
44508;SDS011;30214;52.246;14.408;2023-07-09T10:37:16;3.90;;;2.60;;
44508;SDS011;30214;52.246;14.408;2023-07-09T10:39:53;5.80;;;2.73;;
44508;SDS011;30214;52.246;14.408;2023-07-09T10:42:24;7.20;;;2.53;;
44508;SDS011;30214;52.246;14.408;2023-07-09T10:44:55;4.38;;;2.65;;
44508;SDS011;30214;52.246;14.408;2023-07-09T10:47:29;3.75;;;2.70;;
44508;SDS011;30214;52.246;14.408;2023-07-09T10:50:03;5.15;;;2.63;;
44508;SDS011;30214;52.246;14.408;2023-07-09T10:52:39;7.38;;;2.88;;
44508;SDS011;30214;52.246;14.408;2023-07-09T10:55:13;5.28;;;2.90;;
44508;SDS011;30214;52.246;14.408;2023-07-09T10:57:44;4.90;;;2.78;;
44508;SDS011;30214;52.246;14.408;2023-07-09T11:00:18;4.47;;;2.78;;
44508;SDS011;30214;52.246;14.408;2023-07-09T11:02:50;4.50;;;2.80;;
44508;SDS011;30214;52.246;14.408;2023-07-09T11:05:27;5.88;;;3.00;;
44508;SDS011;30214;52.246;14.408;2023-07-09T11:07:56;4.63;;;2.92;;
44508;SDS011;30214;52.246;14.408;2023-07-09T11:10:29;4.05;;;2.78;;
44508;SDS011;30214;52.246;14.408;2023-07-09T11:13:01;7.80;;;2.67;;
44508;SDS011;30214;52.246;14.408;2023-07-09T11:15:34;5.45;;;2.88;;
44508;SDS011;30214;52.246;14.408;2023-07-09T11:18:04;6.78;;;2.75;;
44508;SDS011;30214;52.246;14.408;2023-07-09T11:20:35;4.88;;;2.63;;
44508;SDS011;30214;52.246;14.408;2023-07-09T11:23:16;5.90;;;3.13;;
44508;SDS011;30214;52.246;14.408;2023-07-09T11:25:45;6.45;;;2.80;;
44508;SDS011;30214;52.246;14.408;2023-07-09T11:28:15;4.90;;;2.83;;
44508;SDS011;30214;52.246;14.408;2023-07-09T11:30:46;4.95;;;2.90;;
44508;SDS011;30214;52.246;14.408;2023-07-09T11:33:16;5.10;;;2.85;;
44508;SDS011;30214;52.246;14.408;2023-07-09T11:35:47;4.10;;;2.55;;
44508;SDS011;30214;52.246;14.408;2023-07-09T11:38:16;4.20;;;2.78;;
44508;SDS011;30214;52.246;14.408;2023-07-09T11:40:46;6.00;;;2.60;;
44508;SDS011;30214;52.246;14.408;2023-07-09T11:43:25;4.60;;;2.85;;
44508;SDS011;30214;52.246;14.408;2023-07-09T11:45:54;4.95;;;2.72;;
44508;SDS011;30214;52.246;14.408;2023-07-09T11:48:27;8.05;;;3.30;;
44508;SDS011;30214;52.246;14.408;2023-07-09T11:50:58;4.35;;;2.67;;
44508;SDS011;30214;52.246;14.408;2023-07-09T11:53:32;5.38;;;2.70;;
44508;SDS011;30214;52.246;14.408;2023-07-09T11:56:02;4.57;;;2.50;;
44508;SDS011;30214;52.246;14.408;2023-07-09T11:58:29;5.40;;;2.55;;
44508;SDS011;30214;52.246;14.408;2023-07-09T12:00:57;6.20;;;2.92;;
44508;SDS011;30214;52.246;14.408;2023-07-09T12:03:27;4.03;;;2.53;;
44508;SDS011;30214;52.246;14.408;2023-07-09T12:06:00;5.72;;;2.83;;
44508;SDS011;30214;52.246;14.408;2023-07-09T12:08:32;4.47;;;2.60;;
44508;SDS011;30214;52.246;14.408;2023-07-09T12:11:00;6.95;;;2.83;;
44508;SDS011;30214;52.246;14.408;2023-07-09T12:13:28;5.05;;;2.67;;
44508;SDS011;30214;52.246;14.408;2023-07-09T12:15:54;8.45;;;2.70;;
44508;SDS011;30214;52.246;14.408;2023-07-09T12:18:22;5.30;;;2.97;;
44508;SDS011;30214;52.246;14.408;2023-07-09T12:20:50;6.38;;;2.70;;
44508;SDS011;30214;52.246;14.408;2023-07-09T12:23:23;7.07;;;2.85;;
44508;SDS011;30214;52.246;14.408;2023-07-09T12:25:53;6.38;;;3.33;;
44508;SDS011;30214;52.246;14.408;2023-07-09T12:28:21;6.18;;;2.65;;
44508;SDS011;30214;52.246;14.408;2023-07-09T12:30:49;5.28;;;2.58;;
44508;SDS011;30214;52.246;14.408;2023-07-09T12:33:18;6.03;;;2.85;;
44508;SDS011;30214;52.246;14.408;2023-07-09T12:35:46;6.63;;;3.33;;
44508;SDS011;30214;52.246;14.408;2023-07-09T12:38:16;5.93;;;3.00;;
44508;SDS011;30214;52.246;14.408;2023-07-09T12:40:47;4.13;;;2.75;;
44508;SDS011;30214;52.246;14.408;2023-07-09T12:43:17;7.65;;;2.80;;
44508;SDS011;30214;52.246;14.408;2023-07-09T12:45:47;5.25;;;3.20;;
44508;SDS011;30214;52.246;14.408;2023-07-09T12:48:14;8.02;;;3.00;;
44508;SDS011;30214;52.246;14.408;2023-07-09T12:50:41;5.53;;;3.10;;
44508;SDS011;30214;52.246;14.408;2023-07-09T12:53:17;5.43;;;3.20;;
44508;SDS011;30214;52.246;14.408;2023-07-09T12:55:47;4.10;;;2.90;;
44508;SDS011;30214;52.246;14.408;2023-07-09T12:58:17;5.15;;;3.20;;
44508;SDS011;30214;52.246;14.408;2023-07-09T13:00:47;6.30;;;2.90;;
44508;SDS011;30214;52.246;14.408;2023-07-09T13:03:17;5.03;;;3.10;;
44508;SDS011;30214;52.246;14.408;2023-07-09T13:05:54;4.80;;;2.97;;
44508;SDS011;30214;52.246;14.408;2023-07-09T13:08:22;6.43;;;2.83;;
44508;SDS011;30214;52.246;14.408;2023-07-09T13:10:51;4.28;;;2.88;;
44508;SDS011;30214;52.246;14.408;2023-07-09T13:13:19;5.15;;;3.13;;
44508;SDS011;30214;52.246;14.408;2023-07-09T13:15:48;3.75;;;2.78;;
44508;SDS011;30214;52.246;14.408;2023-07-09T13:18:21;5.88;;;3.35;;
44508;SDS011;30214;52.246;14.408;2023-07-09T13:20:49;5.90;;;3.20;;
44508;SDS011;30214;52.246;14.408;2023-07-09T13:23:18;5.20;;;2.90;;
44508;SDS011;30214;52.246;14.408;2023-07-09T13:25:46;6.13;;;3.00;;
44508;SDS011;30214;52.246;14.408;2023-07-09T13:28:18;7.28;;;3.28;;
44508;SDS011;30214;52.246;14.408;2023-07-09T13:30:47;6.00;;;2.85;;
44508;SDS011;30214;52.246;14.408;2023-07-09T13:33:16;7.90;;;3.28;;
44508;SDS011;30214;52.246;14.408;2023-07-09T13:35:44;6.07;;;3.25;;
44508;SDS011;30214;52.246;14.408;2023-07-09T13:38:12;6.07;;;2.88;;
44508;SDS011;30214;52.246;14.408;2023-07-09T13:40:40;5.55;;;3.38;;
44508;SDS011;30214;52.246;14.408;2023-07-09T13:43:13;4.72;;;2.83;;
44508;SDS011;30214;52.246;14.408;2023-07-09T13:45:41;7.05;;;3.25;;
44508;SDS011;30214;52.246;14.408;2023-07-09T13:48:12;7.82;;;3.40;;
44508;SDS011;30214;52.246;14.408;2023-07-09T13:50:49;5.85;;;2.97;;
44508;SDS011;30214;52.246;14.408;2023-07-09T13:53:17;5.97;;;3.30;;
44508;SDS011;30214;52.246;14.408;2023-07-09T13:55:46;6.65;;;3.20;;
44508;SDS011;30214;52.246;14.408;2023-07-09T13:58:15;5.53;;;3.55;;
44508;SDS011;30214;52.246;14.408;2023-07-09T14:00:45;5.68;;;3.42;;
44508;SDS011;30214;52.246;14.408;2023-07-09T14:03:17;5.95;;;3.30;;
44508;SDS011;30214;52.246;14.408;2023-07-09T14:05:46;5.60;;;3.35;;
44508;SDS011;30214;52.246;14.408;2023-07-09T14:08:13;4.80;;;3.40;;
44508;SDS011;30214;52.246;14.408;2023-07-09T14:10:41;7.32;;;3.35;;
44508;SDS011;30214;52.246;14.408;2023-07-09T14:13:08;8.48;;;3.08;;
44508;SDS011;30214;52.246;14.408;2023-07-09T14:15:39;6.28;;;3.58;;
44508;SDS011;30214;52.246;14.408;2023-07-09T14:18:10;6.32;;;3.35;;
44508;SDS011;30214;52.246;14.408;2023-07-09T14:23:07;5.85;;;3.70;;
44508;SDS011;30214;52.246;14.408;2023-07-09T14:25:37;6.82;;;3.03;;
44508;SDS011;30214;52.246;14.408;2023-07-09T14:28:07;7.00;;;2.97;;
44508;SDS011;30214;52.246;14.408;2023-07-09T14:30:36;6.85;;;3.20;;
44508;SDS011;30214;52.246;14.408;2023-07-09T14:33:04;9.38;;;4.05;;
44508;SDS011;30214;52.246;14.408;2023-07-09T14:35:36;6.07;;;3.10;;
44508;SDS011;30214;52.246;14.408;2023-07-09T14:38:03;6.10;;;3.25;;
44508;SDS011;30214;52.246;14.408;2023-07-09T14:40:36;6.50;;;3.25;;
44508;SDS011;30214;52.246;14.408;2023-07-09T14:43:04;4.93;;;3.53;;
44508;SDS011;30214;52.246;14.408;2023-07-09T14:45:35;5.88;;;3.58;;
44508;SDS011;30214;52.246;14.408;2023-07-09T14:48:04;6.32;;;3.55;;
44508;SDS011;30214;52.246;14.408;2023-07-09T14:50:37;8.90;;;3.55;;
44508;SDS011;30214;52.246;14.408;2023-07-09T14:53:05;7.85;;;3.58;;